VIR3N EGLL-KJFK
Flight info
| Callsign | VIR3N |
|---|---|
| Flight time | N/A |
| Altitude | 34000 |
| Route | CPT L9 BIBPE DCT BUCGO DCT FELCA DCT NICXI DCT BAKUR DCT NEBIN/M083F340 DCT 5330N02000W 5230N03000W 51N040W 4930N05000W DCT IBERG/N0479F340 N364A TUSKY DCT PLYMM PARCH4 |
| Aircraft | A339/H-SADE1E2E3GHIJ3J5M1P2RWXY/LB2D1 |
Departure
| Time | 2026-05-07 09:02 |
|---|---|
| Airport | London Heathrow Airport (EGLL) |
Arrival
| Time | N/A |
|---|---|
| Airport | John F. Kennedy International Airport (KJFK) |
| Time | Latitude | Longitude | Altitude | Speed | Heading |
|---|---|---|---|---|---|
| 2026-05-07 07:05 | 51.47053 | -0.46992 | 85 ft | 0 kts | 270° |
| 2026-05-07 08:48 | 51.47053 | -0.46979 | 86 ft | 2 kts | 269° |
| 2026-05-07 08:49 | 51.47055 | -0.46955 | 86 ft | 2 kts | 255° |
| 2026-05-07 08:49 | 51.47060 | -0.46933 | 86 ft | 2 kts | 243° |
| 2026-05-07 08:49 | 51.47067 | -0.46914 | 86 ft | 2 kts | 232° |
| 2026-05-07 08:49 | 51.47077 | -0.46896 | 86 ft | 2 kts | 221° |
| 2026-05-07 08:50 | 51.47089 | -0.46882 | 86 ft | 2 kts | 209° |
| 2026-05-07 08:50 | 51.47102 | -0.46872 | 86 ft | 2 kts | 198° |
| 2026-05-07 08:50 | 51.47116 | -0.46867 | 86 ft | 2 kts | 187° |
| 2026-05-07 08:50 | 51.47126 | -0.46866 | 86 ft | 0 kts | 179° |
| 2026-05-07 08:51 | 51.47129 | -0.46866 | 86 ft | 0 kts | 179° |
| 2026-05-07 08:54 | 51.47126 | -0.46866 | 86 ft | 1 kts | 179° |
| 2026-05-07 08:54 | 51.47111 | -0.46865 | 86 ft | 2 kts | 179° |
| 2026-05-07 08:54 | 51.47085 | -0.46864 | 86 ft | 4 kts | 179° |
| 2026-05-07 08:54 | 51.47047 | -0.46863 | 86 ft | 6 kts | 179° |
| 2026-05-07 08:55 | 51.46997 | -0.46861 | 86 ft | 7 kts | 179° |
| 2026-05-07 08:55 | 51.46939 | -0.46864 | 85 ft | 8 kts | 182° |
| 2026-05-07 08:55 | 51.46873 | -0.46864 | 85 ft | 10 kts | 180° |
| 2026-05-07 08:55 | 51.46800 | -0.46863 | 85 ft | 10 kts | 180° |
| 2026-05-07 08:56 | 51.46724 | -0.46863 | 85 ft | 6 kts | 180° |
| 2026-05-07 08:56 | 51.46687 | -0.46865 | 85 ft | 4 kts | 194° |
| 2026-05-07 08:56 | 51.46664 | -0.46904 | 85 ft | 6 kts | 245° |
| 2026-05-07 08:56 | 51.46656 | -0.46980 | 85 ft | 7 kts | 268° |
| 2026-05-07 08:57 | 51.46656 | -0.47073 | 85 ft | 9 kts | 271° |
| 2026-05-07 08:57 | 51.46657 | -0.47180 | 85 ft | 10 kts | 271° |
| 2026-05-07 08:57 | 51.46655 | -0.47298 | 85 ft | 11 kts | 269° |
| 2026-05-07 08:57 | 51.46654 | -0.47427 | 85 ft | 12 kts | 270° |
| 2026-05-07 08:58 | 51.46654 | -0.47564 | 85 ft | 12 kts | 270° |
| 2026-05-07 08:58 | 51.46654 | -0.47709 | 85 ft | 13 kts | 270° |
| 2026-05-07 08:58 | 51.46653 | -0.47861 | 85 ft | 13 kts | 270° |
| 2026-05-07 08:58 | 51.46652 | -0.48019 | 85 ft | 14 kts | 271° |
| 2026-05-07 08:59 | 51.46652 | -0.48179 | 85 ft | 14 kts | 270° |
| 2026-05-07 08:59 | 51.46651 | -0.48344 | 85 ft | 15 kts | 269° |
| 2026-05-07 08:59 | 51.46651 | -0.48513 | 85 ft | 15 kts | 269° |
| 2026-05-07 08:59 | 51.46650 | -0.48663 | 85 ft | 10 kts | 267° |
| 2026-05-07 09:00 | 51.46608 | -0.48757 | 85 ft | 11 kts | 210° |
| 2026-05-07 09:00 | 51.46531 | -0.48782 | 85 ft | 11 kts | 171° |
| 2026-05-07 09:00 | 51.46480 | -0.48691 | 85 ft | 12 kts | 98° |
| 2026-05-07 09:00 | 51.46479 | -0.48649 | 85 ft | 0 kts | 92° |
| 2026-05-07 09:01 | 51.46479 | -0.48640 | 85 ft | 1 kts | 92° |
| 2026-05-07 09:01 | 51.46478 | -0.48595 | 85 ft | 13 kts | 91° |
| 2026-05-07 09:01 | 51.46478 | -0.48061 | 86 ft | 81 kts | 90° |
| 2026-05-07 09:01 | 51.46484 | -0.46837 | 86 ft | 139 kts | 88° |
| 2026-05-07 09:02 | 51.46484 | -0.44997 | 167 ft | 181 kts | 91° |
| 2026-05-07 09:02 | 51.46510 | -0.42985 | 747 ft | 184 kts | 90° |
| 2026-05-07 09:02 | 51.46249 | -0.41041 | 1528 ft | 180 kts | 122° |
| 2026-05-07 09:02 | 51.45322 | -0.39796 | 2127 ft | 181 kts | 160° |
| 2026-05-07 09:03 | 51.44047 | -0.39772 | 2380 ft | 198 kts | 202° |
| 2026-05-07 09:03 | 51.42984 | -0.41268 | 2658 ft | 212 kts | 238° |
| 2026-05-07 09:03 | 51.42188 | -0.43341 | 2955 ft | 227 kts | 237° |
| 2026-05-07 09:03 | 51.41297 | -0.45529 | 3308 ft | 241 kts | 238° |
| 2026-05-07 09:04 | 51.40488 | -0.47961 | 3610 ft | 257 kts | 257° |
| 2026-05-07 09:04 | 51.40443 | -0.50816 | 4077 ft | 265 kts | 281° |
| 2026-05-07 09:04 | 51.40871 | -0.53687 | 4762 ft | 266 kts | 285° |
| 2026-05-07 09:04 | 51.41336 | -0.56499 | 5428 ft | 266 kts | 285° |
| 2026-05-07 09:05 | 51.41768 | -0.59365 | 6073 ft | 268 kts | 283° |
| 2026-05-07 09:05 | 51.42167 | -0.62280 | 6710 ft | 269 kts | 282° |
| 2026-05-07 09:05 | 51.42543 | -0.65225 | 7309 ft | 271 kts | 281° |
| 2026-05-07 09:05 | 51.42906 | -0.68184 | 7864 ft | 275 kts | 281° |
| 2026-05-07 09:06 | 51.43273 | -0.71220 | 8429 ft | 278 kts | 281° |
| 2026-05-07 09:06 | 51.43638 | -0.74246 | 8973 ft | 282 kts | 281° |
| 2026-05-07 09:06 | 51.44012 | -0.77320 | 9520 ft | 285 kts | 281° |
| 2026-05-07 09:06 | 51.44394 | -0.80439 | 10069 ft | 288 kts | 281° |
| 2026-05-07 09:07 | 51.44783 | -0.83618 | 10471 ft | 297 kts | 281° |
| 2026-05-07 09:07 | 51.45187 | -0.86930 | 10737 ft | 311 kts | 281° |
| 2026-05-07 09:07 | 51.45599 | -0.90388 | 10987 ft | 325 kts | 281° |
| 2026-05-07 09:07 | 51.46018 | -0.94042 | 11232 ft | 338 kts | 280° |
| 2026-05-07 09:08 | 51.46448 | -0.97814 | 11482 ft | 352 kts | 280° |
| 2026-05-07 09:08 | 51.46896 | -1.01742 | 11732 ft | 365 kts | 280° |
| 2026-05-07 09:08 | 51.47353 | -1.05755 | 12004 ft | 377 kts | 280° |
| 2026-05-07 09:08 | 51.47827 | -1.09926 | 12528 ft | 381 kts | 280° |
| 2026-05-07 09:09 | 51.48299 | -1.14096 | 13145 ft | 383 kts | 280° |
| 2026-05-07 09:09 | 51.48808 | -1.18259 | 13708 ft | 386 kts | 285° |
| 2026-05-07 09:09 | 51.49863 | -1.22219 | 14218 ft | 391 kts | 301° |
| 2026-05-07 09:09 | 51.51537 | -1.25647 | 14764 ft | 395 kts | 315° |
| 2026-05-07 09:10 | 51.53548 | -1.28687 | 15321 ft | 398 kts | 317° |
| 2026-05-07 09:10 | 51.55565 | -1.31656 | 15857 ft | 401 kts | 317° |
| 2026-05-07 09:10 | 51.57606 | -1.34688 | 16390 ft | 403 kts | 317° |
| 2026-05-07 09:10 | 51.59605 | -1.37921 | 16914 ft | 406 kts | 311° |
| 2026-05-07 09:11 | 51.61344 | -1.41503 | 17441 ft | 408 kts | 304° |
| 2026-05-07 09:11 | 51.62819 | -1.45399 | 17962 ft | 410 kts | 299° |
| 2026-05-07 09:11 | 51.64162 | -1.49413 | 18471 ft | 412 kts | 297° |
| 2026-05-07 09:11 | 51.65492 | -1.53488 | 18954 ft | 415 kts | 297° |
| 2026-05-07 09:12 | 51.66843 | -1.57614 | 19415 ft | 419 kts | 297° |
| 2026-05-07 09:12 | 51.68222 | -1.61796 | 19864 ft | 422 kts | 298° |
| 2026-05-07 09:12 | 51.69488 | -1.66022 | 20278 ft | 425 kts | 291° |
| 2026-05-07 09:12 | 51.70426 | -1.70565 | 20685 ft | 428 kts | 283° |
| 2026-05-07 09:13 | 51.70985 | -1.75234 | 21091 ft | 430 kts | 277° |
| 2026-05-07 09:13 | 51.71342 | -1.80004 | 21501 ft | 433 kts | 275° |
| 2026-05-07 09:13 | 51.71665 | -1.84827 | 21876 ft | 436 kts | 275° |
| 2026-05-07 09:13 | 51.72002 | -1.89744 | 22238 ft | 440 kts | 275° |
| 2026-05-07 09:14 | 51.72346 | -1.94624 | 22598 ft | 443 kts | 276° |
| 2026-05-07 09:14 | 51.72696 | -1.99596 | 22954 ft | 446 kts | 276° |
| 2026-05-07 09:14 | 51.73048 | -2.04592 | 23319 ft | 449 kts | 276° |
| 2026-05-07 09:14 | 51.73402 | -2.09648 | 23695 ft | 452 kts | 276° |
| 2026-05-07 09:15 | 51.73748 | -2.14624 | 24043 ft | 454 kts | 276° |
| 2026-05-07 09:15 | 51.74099 | -2.19699 | 24376 ft | 457 kts | 276° |
| 2026-05-07 09:15 | 51.74448 | -2.24796 | 24695 ft | 460 kts | 276° |
| 2026-05-07 09:15 | 51.74799 | -2.29946 | 25016 ft | 463 kts | 276° |
| 2026-05-07 09:16 | 51.75143 | -2.35041 | 25332 ft | 465 kts | 276° |
| 2026-05-07 09:16 | 51.75495 | -2.40293 | 25643 ft | 468 kts | 276° |
| 2026-05-07 09:16 | 51.75837 | -2.45443 | 25948 ft | 470 kts | 276° |
| 2026-05-07 09:16 | 51.76184 | -2.50703 | 26258 ft | 473 kts | 276° |
| 2026-05-07 09:17 | 51.76530 | -2.55984 | 26574 ft | 475 kts | 276° |
| 2026-05-07 09:17 | 51.76876 | -2.61282 | 26873 ft | 476 kts | 276° |
| 2026-05-07 09:17 | 51.77225 | -2.66617 | 27124 ft | 480 kts | 275° |
| 2026-05-07 09:17 | 51.77576 | -2.71962 | 27404 ft | 481 kts | 275° |
| 2026-05-07 09:18 | 51.77922 | -2.77300 | 27828 ft | 480 kts | 275° |
| 2026-05-07 09:18 | 51.78260 | -2.82594 | 28267 ft | 478 kts | 275° |
| 2026-05-07 09:18 | 51.78598 | -2.87939 | 28665 ft | 478 kts | 275° |
| 2026-05-07 09:18 | 51.78931 | -2.93235 | 29017 ft | 477 kts | 275° |
| 2026-05-07 09:19 | 51.79266 | -2.98615 | 29368 ft | 477 kts | 275° |
| 2026-05-07 09:19 | 51.79591 | -3.03896 | 29754 ft | 476 kts | 275° |
| 2026-05-07 09:19 | 51.79917 | -3.09225 | 30143 ft | 475 kts | 275° |
| 2026-05-07 09:19 | 51.80239 | -3.14544 | 30486 ft | 474 kts | 275° |
| 2026-05-07 09:20 | 51.80559 | -3.19869 | 30821 ft | 474 kts | 275° |
| 2026-05-07 09:20 | 51.80877 | -3.25175 | 31129 ft | 473 kts | 275° |
| 2026-05-07 09:20 | 51.81189 | -3.30440 | 31445 ft | 473 kts | 275° |
| 2026-05-07 09:20 | 51.81498 | -3.35704 | 31762 ft | 472 kts | 275° |
| 2026-05-07 09:21 | 51.81799 | -3.40896 | 32071 ft | 470 kts | 275° |
| 2026-05-07 09:21 | 51.82103 | -3.46163 | 32348 ft | 470 kts | 275° |
| 2026-05-07 09:21 | 51.82433 | -3.51384 | 32585 ft | 471 kts | 277° |
| 2026-05-07 09:21 | 51.82924 | -3.56610 | 32801 ft | 472 kts | 281° |
| 2026-05-07 09:22 | 51.83561 | -3.61777 | 32996 ft | 473 kts | 282° |
| 2026-05-07 09:22 | 51.84248 | -3.67051 | 33185 ft | 475 kts | 282° |
| 2026-05-07 09:22 | 51.84924 | -3.72198 | 33389 ft | 475 kts | 282° |
| 2026-05-07 09:22 | 51.85601 | -3.77401 | 33576 ft | 476 kts | 282° |
| 2026-05-07 09:23 | 51.86280 | -3.82643 | 33758 ft | 477 kts | 281° |
| 2026-05-07 09:23 | 51.86958 | -3.87919 | 33954 ft | 478 kts | 281° |
| 2026-05-07 09:23 | 51.88294 | -3.98416 | 33994 ft | 479 kts | 281° |
| 2026-05-07 09:24 | 51.89628 | -4.08985 | 33995 ft | 480 kts | 281° |
| 2026-05-07 09:24 | 51.90950 | -4.19537 | 33994 ft | 480 kts | 281° |
| 2026-05-07 09:25 | 51.92255 | -4.30061 | 33994 ft | 480 kts | 281° |
| 2026-05-07 09:25 | 51.93558 | -4.40642 | 33994 ft | 480 kts | 281° |
| 2026-05-07 09:26 | 51.94843 | -4.51164 | 33994 ft | 481 kts | 281° |
| 2026-05-07 09:26 | 51.96129 | -4.61778 | 33994 ft | 481 kts | 281° |
| 2026-05-07 09:27 | 51.97406 | -4.72412 | 33994 ft | 481 kts | 280° |
| 2026-05-07 09:28 | 51.99322 | -4.88542 | 33995 ft | 481 kts | 281° |
| 2026-05-07 09:28 | 52.00958 | -4.99184 | 33995 ft | 481 kts | 287° |
| 2026-05-07 09:29 | 52.03304 | -5.09450 | 34006 ft | 484 kts | 294° |
| 2026-05-07 09:29 | 52.06376 | -5.19326 | 34210 ft | 490 kts | 300° |
| 2026-05-07 09:29 | 52.08123 | -5.24130 | 34402 ft | 490 kts | 301° |
| 2026-05-07 09:30 | 52.09896 | -5.28913 | 34631 ft | 489 kts | 301° |
| 2026-05-07 09:30 | 52.11660 | -5.33670 | 34853 ft | 489 kts | 301° |
| 2026-05-07 09:30 | 52.13441 | -5.38499 | 35037 ft | 489 kts | 301° |
| 2026-05-07 09:30 | 52.15176 | -5.43224 | 35175 ft | 488 kts | 301° |
| 2026-05-07 09:31 | 52.16944 | -5.48058 | 35324 ft | 488 kts | 301° |
| 2026-05-07 09:31 | 52.18671 | -5.52792 | 35454 ft | 487 kts | 301° |
| 2026-05-07 09:31 | 52.20401 | -5.57546 | 35583 ft | 487 kts | 300° |
| 2026-05-07 09:31 | 52.22055 | -5.62436 | 35716 ft | 485 kts | 297° |
| 2026-05-07 09:32 | 52.23512 | -5.67366 | 35844 ft | 484 kts | 293° |
| 2026-05-07 09:32 | 52.24795 | -5.72413 | 35960 ft | 483 kts | 290° |
| 2026-05-07 09:32 | 52.25900 | -5.77569 | 36069 ft | 482 kts | 286° |
| 2026-05-07 09:32 | 52.26861 | -5.82792 | 36177 ft | 481 kts | 285° |
| 2026-05-07 09:33 | 52.27776 | -5.87979 | 36285 ft | 481 kts | 285° |
| 2026-05-07 09:33 | 52.28690 | -5.93209 | 36397 ft | 480 kts | 285° |
| 2026-05-07 09:33 | 52.29603 | -5.98434 | 36539 ft | 479 kts | 285° |
| 2026-05-07 09:33 | 52.30510 | -6.03631 | 36683 ft | 479 kts | 285° |
| 2026-05-07 09:34 | 52.31420 | -6.08846 | 36839 ft | 478 kts | 285° |
| 2026-05-07 09:34 | 52.32324 | -6.14032 | 36984 ft | 478 kts | 285° |
| 2026-05-07 09:34 | 52.33230 | -6.19238 | 37136 ft | 477 kts | 285° |
| 2026-05-07 09:34 | 52.34131 | -6.24425 | 37277 ft | 476 kts | 285° |
| 2026-05-07 09:35 | 52.35031 | -6.29621 | 37413 ft | 476 kts | 285° |
| 2026-05-07 09:35 | 52.35930 | -6.34824 | 37539 ft | 475 kts | 285° |
| 2026-05-07 09:35 | 52.36812 | -6.39945 | 37662 ft | 475 kts | 285° |
| 2026-05-07 09:35 | 52.37710 | -6.45178 | 37784 ft | 474 kts | 285° |
| 2026-05-07 09:36 | 52.38598 | -6.50362 | 37920 ft | 474 kts | 285° |
| 2026-05-07 09:36 | 52.40359 | -6.60687 | 37966 ft | 474 kts | 285° |
| 2026-05-07 09:37 | 52.42117 | -6.71060 | 37967 ft | 474 kts | 284° |
| 2026-05-07 09:37 | 52.43862 | -6.81423 | 37962 ft | 474 kts | 284° |
| 2026-05-07 09:38 | 52.45593 | -6.91759 | 37957 ft | 473 kts | 284° |
| 2026-05-07 09:38 | 52.47324 | -7.02153 | 37956 ft | 475 kts | 284° |
| 2026-05-07 09:39 | 52.49058 | -7.12635 | 37951 ft | 480 kts | 284° |
| 2026-05-07 09:39 | 52.50787 | -7.23153 | 37947 ft | 484 kts | 284° |
| 2026-05-07 09:40 | 52.52533 | -7.33833 | 37969 ft | 486 kts | 284° |
| 2026-05-07 09:40 | 52.54270 | -7.44522 | 37960 ft | 486 kts | 284° |
| 2026-05-07 09:41 | 52.55998 | -7.55226 | 37964 ft | 486 kts | 284° |
| 2026-05-07 09:41 | 52.57699 | -7.65834 | 37955 ft | 485 kts | 283° |
| 2026-05-07 09:42 | 52.59410 | -7.76579 | 37960 ft | 485 kts | 283° |
| 2026-05-07 09:42 | 52.61106 | -7.87292 | 37955 ft | 485 kts | 283° |
| 2026-05-07 09:43 | 52.62785 | -7.97962 | 37954 ft | 485 kts | 283° |
| 2026-05-07 09:43 | 52.64465 | -8.08720 | 37950 ft | 485 kts | 283° |
| 2026-05-07 09:44 | 52.66130 | -8.19451 | 37925 ft | 485 kts | 283° |
| 2026-05-07 09:44 | 52.67775 | -8.30114 | 37945 ft | 484 kts | 283° |
| 2026-05-07 09:45 | 52.69426 | -8.40890 | 37942 ft | 484 kts | 283° |
| 2026-05-07 09:45 | 52.71056 | -8.51604 | 37945 ft | 484 kts | 283° |
| 2026-05-07 09:46 | 52.72666 | -8.62260 | 37946 ft | 484 kts | 283° |
| 2026-05-07 09:46 | 52.74277 | -8.72990 | 37943 ft | 484 kts | 282° |
| 2026-05-07 09:47 | 52.75885 | -8.83773 | 37946 ft | 483 kts | 282° |
| 2026-05-07 09:47 | 52.77468 | -8.94466 | 37932 ft | 483 kts | 282° |
| 2026-05-07 09:48 | 52.79052 | -9.05229 | 37940 ft | 483 kts | 282° |
| 2026-05-07 09:48 | 52.80614 | -9.15920 | 37945 ft | 482 kts | 282° |
| 2026-05-07 09:49 | 52.82170 | -9.26636 | 37935 ft | 482 kts | 282° |
| 2026-05-07 09:49 | 52.83717 | -9.37375 | 37937 ft | 482 kts | 282° |
| 2026-05-07 09:50 | 52.85256 | -9.48133 | 37917 ft | 482 kts | 282° |
| 2026-05-07 09:50 | 52.86776 | -9.58833 | 37928 ft | 482 kts | 282° |
| 2026-05-07 09:51 | 52.88299 | -9.69627 | 37911 ft | 482 kts | 281° |
| 2026-05-07 09:51 | 52.89794 | -9.80311 | 37909 ft | 481 kts | 281° |